TAF Text Data
IDs:
Format:
Raw Decoded Include METAR

Data at: 0925 UTC 25 Mar 2019

METAR for:KTOB (Dodge Center Arpt, MN, US)
Text:KTOB 250915Z AUTO 02006KT 10SM OVC034 M01/M03 A3027 RMK AO2
Temperature: -1.0°C ( 30°F)
Dewpoint: -3.0°C ( 27°F) [RH = 86%]
Pressure (altimeter):30.27 inches Hg (1025.1 mb)
Winds:from the NNE (20 degrees) at 7 MPH (6 knots; 3.1 m/s)
Visibility:10 or more sm (16+ km)
Ceiling:3400 feet AGL
Clouds: overcast cloud deck at 3400 feet AGL
QC Flag:automated observation with no human augmentation

TAF for:KTOB (Dodge Center Arpt, MN, US)
Text:No data found